sensor_id;sensor_type;location;lat;lon;timestamp;pressure;altitude;pressure_sealevel;temperature;humidity
61484;BME280;47349;55.640;37.692;2022-07-17T00:27:21;99117.28;;;16.75;66.47
61484;BME280;47349;55.640;37.692;2022-07-17T00:32:27;99121.19;;;16.79;65.44
61484;BME280;47349;55.640;37.692;2022-07-17T00:36:10;99157.56;;;17.13;65.87
61484;BME280;47349;55.640;37.692;2022-07-17T00:40:54;99153.91;;;17.19;65.69
61484;BME280;47349;55.640;37.692;2022-07-17T00:45:03;99149.75;;;17.05;65.55
61484;BME280;47349;55.640;37.692;2022-07-17T00:49:23;99130.22;;;17.03;65.48
61484;BME280;47349;55.640;37.692;2022-07-17T01:04:56;99169.72;;;17.34;65.57
61484;BME280;47349;55.640;37.692;2022-07-17T01:08:40;99142.03;;;17.20;64.65
61484;BME280;47349;55.640;37.692;2022-07-17T01:12:03;99118.00;;;17.12;64.37
61484;BME280;47349;55.640;37.692;2022-07-17T01:16:31;99148.50;;;17.31;65.26
61484;BME280;47349;55.640;37.692;2022-07-17T01:19:40;99137.44;;;17.20;66.58
61484;BME280;47349;55.640;37.692;2022-07-17T01:24:19;99140.56;;;17.06;67.57
61484;BME280;47349;55.640;37.692;2022-07-17T01:28:21;99137.81;;;16.64;69.43
61484;BME280;47349;55.640;37.692;2022-07-17T02:06:19;99134.75;;;15.62;79.63
61484;BME280;47349;55.640;37.692;2022-07-17T02:10:34;99136.84;;;15.66;78.00
61484;BME280;47349;55.640;37.692;2022-07-17T02:32:20;99157.31;;;15.74;79.78
61484;BME280;47349;55.640;37.692;2022-07-17T02:36:29;99152.41;;;15.64;79.87
61484;BME280;47349;55.640;37.692;2022-07-17T02:39:35;99182.19;;;15.83;79.54
61484;BME280;47349;55.640;37.692;2022-07-17T02:43:58;99143.66;;;15.69;79.91
61484;BME280;47349;55.640;37.692;2022-07-17T02:47:35;99142.16;;;15.73;79.58
61484;BME280;47349;55.640;37.692;2022-07-17T02:52:21;99179.53;;;16.01;79.50
61484;BME280;47349;55.640;37.692;2022-07-17T03:16:06;99149.47;;;15.91;79.18
61484;BME280;47349;55.640;37.692;2022-07-17T03:32:41;99140.69;;;16.14;77.87
61484;BME280;47349;55.640;37.692;2022-07-17T03:35:30;99135.00;;;16.22;77.30
61484;BME280;47349;55.640;37.692;2022-07-17T03:38:54;99161.94;;;16.47;77.23
61484;BME280;47349;55.640;37.692;2022-07-17T03:41:58;99138.13;;;16.37;76.58
61484;BME280;47349;55.640;37.692;2022-07-17T03:45:31;99163.34;;;16.68;76.01
61484;BME280;47349;55.640;37.692;2022-07-17T03:49:01;99140.53;;;16.64;74.87
61484;BME280;47349;55.640;37.692;2022-07-17T03:52:13;99146.66;;;16.89;74.88
61484;BME280;47349;55.640;37.692;2022-07-17T03:55:49;99140.09;;;16.97;73.94
61484;BME280;47349;55.640;37.692;2022-07-17T03:59:20;99170.75;;;17.21;74.12
61484;BME280;47349;55.640;37.692;2022-07-17T04:02:09;99158.28;;;17.20;74.45
61484;BME280;47349;55.640;37.692;2022-07-17T04:05:20;99196.38;;;17.48;72.99
61484;BME280;47349;55.640;37.692;2022-07-17T04:09:00;99189.34;;;17.71;72.84
61484;BME280;47349;55.640;37.692;2022-07-17T04:11:42;99147.59;;;17.37;71.20
61484;BME280;47349;55.640;37.692;2022-07-17T04:15:56;99173.75;;;17.31;71.48
61484;BME280;47349;55.640;37.692;2022-07-17T04:19:50;99193.53;;;17.32;71.87
61484;BME280;47349;55.640;37.692;2022-07-17T04:36:05;99191.41;;;17.76;68.89
61484;BME280;47349;55.640;37.692;2022-07-17T04:42:23;99162.00;;;17.61;67.89
61484;BME280;47349;55.640;37.692;2022-07-17T07:44:20;99112.31;;;20.61;47.63
61484;BME280;47349;55.640;37.692;2022-07-17T07:47:47;99132.56;;;20.97;46.89
61484;BME280;47349;55.640;37.692;2022-07-17T07:51:26;99102.72;;;21.13;46.53
61484;BME280;47349;55.640;37.692;2022-07-17T07:54:36;99157.03;;;21.46;46.35
61484;BME280;47349;55.640;37.692;2022-07-17T07:58:16;99153.66;;;21.34;48.13
61484;BME280;47349;55.640;37.692;2022-07-17T08:02:15;99158.91;;;21.14;47.38
61484;BME280;47349;55.640;37.692;2022-07-17T08:06:25;99123.09;;;21.05;47.06
61484;BME280;47349;55.640;37.692;2022-07-17T08:09:34;99131.94;;;21.44;46.43
61484;BME280;47349;55.640;37.692;2022-07-17T08:13:14;99129.97;;;21.72;45.67
61484;BME280;47349;55.640;37.692;2022-07-17T08:42:39;99138.66;;;20.83;47.68
61484;BME280;47349;55.640;37.692;2022-07-17T08:47:14;99170.28;;;21.33;47.79
61484;BME280;47349;55.640;37.692;2022-07-17T08:50:33;99132.25;;;21.48;46.38
61484;BME280;47349;55.640;37.692;2022-07-17T08:54:12;99169.44;;;22.01;45.35
61484;BME280;47349;55.640;37.692;2022-07-17T08:57:27;99137.25;;;22.03;45.71
61484;BME280;47349;55.640;37.692;2022-07-17T09:00:38;99160.38;;;22.33;45.36
61484;BME280;47349;55.640;37.692;2022-07-17T09:04:54;99166.06;;;22.26;47.54
61484;BME280;47349;55.640;37.692;2022-07-17T09:19:09;99166.53;;;22.71;47.31
61484;BME280;47349;55.640;37.692;2022-07-17T09:57:20;99154.59;;;22.87;43.93
61484;BME280;47349;55.640;37.692;2022-07-17T10:07:50;99142.00;;;22.18;45.22
61484;BME280;47349;55.640;37.692;2022-07-17T10:11:23;99142.97;;;22.02;46.16
61484;BME280;47349;55.640;37.692;2022-07-17T10:15:30;99193.16;;;21.96;41.42
61484;BME280;47349;55.640;37.692;2022-07-17T10:19:01;99141.81;;;21.88;39.95
61484;BME280;47349;55.640;37.692;2022-07-17T10:22:54;99163.31;;;22.21;42.02
61484;BME280;47349;55.640;37.692;2022-07-17T10:27:02;99184.03;;;22.17;44.20
61484;BME280;47349;55.640;37.692;2022-07-17T10:31:05;99153.41;;;22.10;44.21
61484;BME280;47349;55.640;37.692;2022-07-17T10:35:24;99168.25;;;22.24;43.51
61484;BME280;47349;55.640;37.692;2022-07-17T10:39:16;99140.53;;;22.00;43.42
61484;BME280;47349;55.640;37.692;2022-07-17T10:49:11;99151.28;;;21.80;44.46
61484;BME280;47349;55.640;37.692;2022-07-17T10:53:36;99141.69;;;21.72;43.99
61484;BME280;47349;55.640;37.692;2022-07-17T10:56:30;99122.50;;;22.04;44.45
61484;BME280;47349;55.640;37.692;2022-07-17T11:01:19;99159.81;;;22.89;42.80
61484;BME280;47349;55.640;37.692;2022-07-17T11:05:47;99143.59;;;22.72;42.74
61484;BME280;47349;55.640;37.692;2022-07-17T11:27:00;99141.81;;;21.88;43.77
61484;BME280;47349;55.640;37.692;2022-07-17T11:33:34;99111.72;;;21.40;44.54
61484;BME280;47349;55.640;37.692;2022-07-17T11:41:36;99142.34;;;22.32;43.42
61484;BME280;47349;55.640;37.692;2022-07-17T12:09:04;99103.81;;;25.47;36.99
61484;BME280;47349;55.640;37.692;2022-07-17T12:12:20;99094.72;;;25.51;36.13
61484;BME280;47349;55.640;37.692;2022-07-17T12:15:55;99128.09;;;25.63;36.07
61484;BME280;47349;55.640;37.692;2022-07-17T12:20:03;99106.94;;;25.35;35.50
61484;BME280;47349;55.640;37.692;2022-07-17T12:23:38;99127.00;;;25.30;36.13
61484;BME280;47349;55.640;37.692;2022-07-17T12:27:35;99123.44;;;25.30;34.60
61484;BME280;47349;55.640;37.692;2022-07-17T12:30:53;99104.94;;;25.46;34.82
61484;BME280;47349;55.640;37.692;2022-07-17T12:33:55;99111.63;;;25.63;33.26
61484;BME280;47349;55.640;37.692;2022-07-17T12:36:39;99110.19;;;26.00;33.89
61484;BME280;47349;55.640;37.692;2022-07-17T12:39:25;99083.13;;;25.88;33.60
61484;BME280;47349;55.640;37.692;2022-07-17T12:42:09;99087.53;;;26.13;33.47
61484;BME280;47349;55.640;37.692;2022-07-17T12:44:51;99108.91;;;26.17;34.01
61484;BME280;47349;55.640;37.692;2022-07-17T12:47:36;99098.56;;;26.08;34.29
61484;BME280;47349;55.640;37.692;2022-07-17T12:51:20;99101.88;;;26.05;34.82
61484;BME280;47349;55.640;37.692;2022-07-17T12:54:04;99089.09;;;25.96;34.38
61484;BME280;47349;55.640;37.692;2022-07-17T12:57:19;99120.47;;;26.13;35.03
61484;BME280;47349;55.640;37.692;2022-07-17T13:01:20;99080.72;;;25.82;35.47
61484;BME280;47349;55.640;37.692;2022-07-17T13:04:10;99068.09;;;25.81;36.54
61484;BME280;47349;55.640;37.692;2022-07-17T13:07:36;99062.22;;;25.63;36.26
61484;BME280;47349;55.640;37.692;2022-07-17T13:10:47;99089.03;;;25.72;36.85
61484;BME280;47349;55.640;37.692;2022-07-17T13:14:24;99091.59;;;25.34;37.06
61484;BME280;47349;55.640;37.692;2022-07-17T13:17:40;99065.47;;;25.02;37.47
61484;BME280;47349;55.640;37.692;2022-07-17T13:21:54;99065.84;;;24.91;38.32
61484;BME280;47349;55.640;37.692;2022-07-17T13:25:57;99042.13;;;24.11;36.37
61484;BME280;47349;55.640;37.692;2022-07-17T13:30:45;99061.16;;;23.72;37.04
61484;BME280;47349;55.640;37.692;2022-07-17T13:44:23;99069.41;;;25.30;34.79
61484;BME280;47349;55.640;37.692;2022-07-17T13:57:23;99082.34;;;25.25;34.38
61484;BME280;47349;55.640;37.692;2022-07-17T14:01:36;99077.66;;;24.86;34.25
61484;BME280;47349;55.640;37.692;2022-07-17T14:05:03;99122.59;;;24.85;32.10
61484;BME280;47349;55.640;37.692;2022-07-17T14:08:43;99068.47;;;24.67;32.06
61484;BME280;47349;55.640;37.692;2022-07-17T14:13:34;99076.75;;;24.56;32.73
61484;BME280;47349;55.640;37.692;2022-07-17T14:22:08;99080.72;;;24.15;32.35
61484;BME280;47349;55.640;37.692;2022-07-17T14:25:45;99074.75;;;23.97;32.94
61484;BME280;47349;55.640;37.692;2022-07-17T14:28:47;99074.78;;;23.87;33.13
61484;BME280;47349;55.640;37.692;2022-07-17T14:31:31;99087.03;;;24.10;34.09
61484;BME280;47349;55.640;37.692;2022-07-17T14:35:06;99089.75;;;24.20;36.27
61484;BME280;47349;55.640;37.692;2022-07-17T14:39:15;99075.81;;;24.11;35.79
61484;BME280;47349;55.640;37.692;2022-07-17T14:44:12;99092.78;;;24.14;33.16
61484;BME280;47349;55.640;37.692;2022-07-17T14:48:22;99070.13;;;23.88;33.57
61484;BME280;47349;55.640;37.692;2022-07-17T14:52:20;99091.78;;;23.84;32.36
61484;BME280;47349;55.640;37.692;2022-07-17T14:55:48;99075.13;;;23.50;33.02
61484;BME280;47349;55.640;37.692;2022-07-17T14:59:01;99071.28;;;23.41;32.70
61484;BME280;47349;55.640;37.692;2022-07-17T15:02:40;99060.09;;;23.17;33.26
61484;BME280;47349;55.640;37.692;2022-07-17T15:06:14;99103.03;;;23.26;33.10
61484;BME280;47349;55.640;37.692;2022-07-17T15:09:37;99069.94;;;23.02;33.32
61484;BME280;47349;55.640;37.692;2022-07-17T15:13:38;99069.66;;;23.04;33.36
61484;BME280;47349;55.640;37.692;2022-07-17T15:17:35;99063.03;;;22.84;34.55
61484;BME280;47349;55.640;37.692;2022-07-17T15:21:04;99076.69;;;22.79;34.71
61484;BME280;47349;55.640;37.692;2022-07-17T15:25:38;99074.13;;;22.47;35.51
61484;BME280;47349;55.640;37.692;2022-07-17T15:32:44;99072.72;;;22.24;35.98
61484;BME280;47349;55.640;37.692;2022-07-17T15:56:10;99080.50;;;22.05;36.62
61484;BME280;47349;55.640;37.692;2022-07-17T16:00:10;99099.25;;;21.92;41.88
61484;BME280;47349;55.640;37.692;2022-07-17T16:03:33;99090.50;;;21.42;43.93
61484;BME280;47349;55.640;37.692;2022-07-17T16:07:06;99105.19;;;21.41;44.96
61484;BME280;47349;55.640;37.692;2022-07-17T16:10:21;99104.91;;;21.11;46.33
61484;BME280;47349;55.640;37.692;2022-07-17T16:14:19;99112.63;;;20.92;46.42
61484;BME280;47349;55.640;37.692;2022-07-17T16:17:52;99105.75;;;20.84;45.97
61484;BME280;47349;55.640;37.692;2022-07-17T16:21:01;99125.31;;;20.81;46.45
61484;BME280;47349;55.640;37.692;2022-07-17T16:24:42;99123.56;;;20.70;45.49
61484;BME280;47349;55.640;37.692;2022-07-17T16:28:30;99081.97;;;20.52;46.02
61484;BME280;47349;55.640;37.692;2022-07-17T16:38:30;99075.00;;;20.62;45.90
61484;BME280;47349;55.640;37.692;2022-07-17T16:47:19;99093.75;;;20.58;46.11
61484;BME280;47349;55.640;37.692;2022-07-17T16:51:22;99105.06;;;20.72;45.67
61484;BME280;47349;55.640;37.692;2022-07-17T16:59:27;99100.25;;;20.35;47.33
61484;BME280;47349;55.640;37.692;2022-07-17T17:03:30;99108.28;;;20.25;46.80
61484;BME280;47349;55.640;37.692;2022-07-17T17:10:13;99157.09;;;20.32;48.10
61484;BME280;47349;55.640;37.692;2022-07-17T17:13:41;99115.94;;;20.06;47.60
61484;BME280;47349;55.640;37.692;2022-07-17T17:19:42;99155.53;;;20.36;47.45
61484;BME280;47349;55.640;37.692;2022-07-17T17:22:37;99138.81;;;20.27;47.61
61484;BME280;47349;55.640;37.692;2022-07-17T17:25:21;99130.06;;;20.25;48.25
61484;BME280;47349;55.640;37.692;2022-07-17T17:28:31;99149.38;;;20.23;48.08
61484;BME280;47349;55.640;37.692;2022-07-17T17:31:35;99144.31;;;20.32;47.83
61484;BME280;47349;55.640;37.692;2022-07-17T17:35:27;99147.72;;;20.44;48.53
61484;BME280;47349;55.640;37.692;2022-07-17T17:39:24;99121.25;;;20.40;48.15
61484;BME280;47349;55.640;37.692;2022-07-17T17:42:32;99153.69;;;20.63;48.50
61484;BME280;47349;55.640;37.692;2022-07-17T17:45:24;99141.88;;;20.52;48.53
61484;BME280;47349;55.640;37.692;2022-07-17T18:38:23;99204.91;;;16.92;71.27
61484;BME280;47349;55.640;37.692;2022-07-17T18:41:09;99228.72;;;17.02;72.20
61484;BME280;47349;55.640;37.692;2022-07-17T18:44:45;99219.50;;;16.91;72.63
61484;BME280;47349;55.640;37.692;2022-07-17T18:48:38;99214.84;;;16.98;72.09
61484;BME280;47349;55.640;37.692;2022-07-17T18:52:31;99248.69;;;17.19;72.58
61484;BME280;47349;55.640;37.692;2022-07-17T18:56:05;99238.94;;;17.18;72.99
61484;BME280;47349;55.640;37.692;2022-07-17T19:03:13;99205.59;;;16.87;73.30
61484;BME280;47349;55.640;37.692;2022-07-17T19:07:48;99211.38;;;16.91;73.90
61484;BME280;47349;55.640;37.692;2022-07-17T19:11:34;99224.59;;;16.99;74.07
61484;BME280;47349;55.640;37.692;2022-07-17T19:16:28;99207.47;;;16.87;75.36
61484;BME280;47349;55.640;37.692;2022-07-17T19:21:42;99220.13;;;16.93;75.62
61484;BME280;47349;55.640;37.692;2022-07-17T19:25:00;99190.59;;;16.73;74.54
61484;BME280;47349;55.640;37.692;2022-07-17T20:13:30;99200.50;;;17.09;71.93
61484;BME280;47349;55.640;37.692;2022-07-17T20:16:35;99172.41;;;16.92;74.70
61484;BME280;47349;55.640;37.692;2022-07-17T20:20:22;99207.50;;;17.17;73.35
61484;BME280;47349;55.640;37.692;2022-07-17T20:23:57;99192.00;;;17.06;73.38
61484;BME280;47349;55.640;37.692;2022-07-17T20:28:06;99176.13;;;16.98;72.76
61484;BME280;47349;55.640;37.692;2022-07-17T20:31:32;99210.00;;;17.00;75.46
61484;BME280;47349;55.640;37.692;2022-07-17T20:34:35;99201.22;;;16.68;76.71
61484;BME280;47349;55.640;37.692;2022-07-17T20:38:22;99210.34;;;16.55;78.30
61484;BME280;47349;55.640;37.692;2022-07-17T20:42:21;99202.00;;;16.57;78.66
61484;BME280;47349;55.640;37.692;2022-07-17T20:45:48;99208.03;;;16.59;77.23
61484;BME280;47349;55.640;37.692;2022-07-17T20:49:17;99191.03;;;16.52;78.68
61484;BME280;47349;55.640;37.692;2022-07-17T20:52:53;99188.75;;;16.49;78.46
61484;BME280;47349;55.640;37.692;2022-07-17T20:57:06;99187.72;;;16.50;78.90
61484;BME280;47349;55.640;37.692;2022-07-17T21:03:28;99190.56;;;16.36;79.45
61484;BME280;47349;55.640;37.692;2022-07-17T21:07:04;99197.78;;;16.24;79.94
61484;BME280;47349;55.640;37.692;2022-07-17T21:27:50;99236.09;;;16.58;78.36
61484;BME280;47349;55.640;37.692;2022-07-17T21:31:25;99195.69;;;16.26;79.01
61484;BME280;47349;55.640;37.692;2022-07-17T21:34:46;99196.06;;;16.30;79.99
61484;BME280;47349;55.640;37.692;2022-07-17T21:38:49;99207.69;;;16.12;82.00
61484;BME280;47349;55.640;37.692;2022-07-17T21:41:48;99203.63;;;16.03;82.44
61484;BME280;47349;55.640;37.692;2022-07-17T22:43:34;99182.00;;;16.21;81.92
61484;BME280;47349;55.640;37.692;2022-07-17T22:47:41;99165.34;;;16.06;82.11
61484;BME280;47349;55.640;37.692;2022-07-17T22:56:15;99166.75;;;16.08;81.49
61484;BME280;47349;55.640;37.692;2022-07-17T22:59:57;99172.22;;;16.02;80.17
61484;BME280;47349;55.640;37.692;2022-07-17T23:04:00;99177.13;;;16.11;80.94
61484;BME280;47349;55.640;37.692;2022-07-17T23:08:49;99211.16;;;16.37;80.56
61484;BME280;47349;55.640;37.692;2022-07-17T23:13:39;99209.59;;;16.30;80.43
61484;BME280;47349;55.640;37.692;2022-07-17T23:18:14;99186.50;;;16.09;81.43
61484;BME280;47349;55.640;37.692;2022-07-17T23:21:28;99162.88;;;15.79;81.78
61484;BME280;47349;55.640;37.692;2022-07-17T23:25:25;99215.09;;;15.98;82.76
61484;BME280;47349;55.640;37.692;2022-07-17T23:28:34;99215.59;;;15.88;83.47
61484;BME280;47349;55.640;37.692;2022-07-17T23:32:23;99162.69;;;15.49;84.14
61484;BME280;47349;55.640;37.692;2022-07-17T23:35:46;99209.34;;;15.63;87.31
61484;BME280;47349;55.640;37.692;2022-07-17T23:38:43;99168.69;;;15.26;88.37
61484;BME280;47349;55.640;37.692;2022-07-17T23:41:40;99192.28;;;15.37;88.56
